Time;durP1;ratioP1;P1;durP2;ratioP2;P2;SDS_P1;SDS_P2;PMS_P1;PMS_P2;Temp;Humidity;BMP_temperature;BMP_pressure;BME280_temperature;BME280_humidity;BME280_pressure;Samples;Min_cycle;Max_cycle;Signal;HPM_P1;HPM_P2
2022/05/06 00:00:18;;;;;;;16.60;7.70;;;8.90;97.30;;;;;;5007955;28;20177;-72
2022/05/06 00:02:44;;;;;;;16.70;7.67;;;8.80;97.30;;;;;;5009661;28;20412;-72
2022/05/06 00:05:13;;;;;;;11.17;7.17;;;8.80;97.30;;;;;;5009723;28;20447;-71
2022/05/06 00:07:39;;;;;;;14.63;6.30;;;8.80;97.30;;;;;;5009811;28;20588;-71
2022/05/06 00:10:06;;;;;;;9.33;5.83;;;8.70;97.30;;;;;;5009404;28;20499;-71
2022/05/06 00:12:32;;;;;;;9.03;4.60;;;8.70;97.30;;;;;;5008124;28;20432;-72
2022/05/06 00:14:58;;;;;;;7.50;3.70;;;8.70;97.30;;;;;;5007880;28;20477;-72
2022/05/06 00:17:24;;;;;;;6.07;4.00;;;8.60;97.30;;;;;;5010790;28;20860;-72
2022/05/06 00:19:50;;;;;;;7.83;3.90;;;8.60;97.30;;;;;;5012615;28;20878;-72
2022/05/06 00:22:16;;;;;;;6.30;4.20;;;8.60;97.30;;;;;;5012521;28;20408;-72
2022/05/06 00:24:41;;;;;;;6.23;4.13;;;8.50;97.30;;;;;;5010988;28;20247;-72
2022/05/06 00:27:07;;;;;;;10.30;4.10;;;8.50;97.30;;;;;;5012054;28;20185;-71
2022/05/06 00:29:33;;;;;;;7.87;3.80;;;8.50;97.30;;;;;;5012777;28;20185;-72
2022/05/06 00:31:59;;;;;;;4.53;3.70;;;8.50;97.30;;;;;;5011283;28;20220;-72
2022/05/06 00:34:25;;;;;;;7.60;3.83;;;8.50;97.30;;;;;;5012689;28;20428;-72
2022/05/06 00:36:50;;;;;;;6.43;3.87;;;8.40;97.30;;;;;;5012439;28;20515;-72
2022/05/06 00:39:16;;;;;;;7.27;4.30;;;8.40;97.30;;;;;;5012415;28;20284;-72
2022/05/06 00:41:42;;;;;;;15.53;4.30;;;8.40;97.30;;;;;;5011056;28;20177;-71
2022/05/06 00:44:08;;;;;;;9.23;3.70;;;8.40;97.30;;;;;;5012257;28;20165;-71
2022/05/06 00:46:35;;;;;;;5.90;3.47;;;8.40;97.30;;;;;;5011001;28;20197;-72
2022/05/06 00:49:01;;;;;;;6.17;4.00;;;8.40;97.30;;;;;;5012078;28;20894;-72
2022/05/06 00:51:28;;;;;;;6.20;4.30;;;8.30;97.30;;;;;;5010757;28;20477;-72
2022/05/06 00:53:55;;;;;;;7.73;4.03;;;8.30;97.30;;;;;;5010552;28;20260;-74
2022/05/06 00:56:24;;;;;;;4.90;3.83;;;8.30;97.30;;;;;;5010766;28;20440;-72
2022/05/06 00:58:52;;;;;;;5.37;3.50;;;8.30;97.30;;;;;;5012300;28;20470;-72
2022/05/06 01:01:18;;;;;;;6.63;3.70;;;8.20;97.30;;;;;;5010687;28;20416;-72
2022/05/06 01:03:44;;;;;;;6.97;3.93;;;8.20;97.30;;;;;;5012076;28;20412;-72
2022/05/06 01:06:18;;;;;;;7.00;3.70;;;8.20;97.30;;;;;;5011799;28;20197;-71
2022/05/06 01:08:44;;;;;;;5.30;3.50;;;8.20;97.30;;;;;;5011898;28;20411;-72
2022/05/06 01:11:13;;;;;;;8.00;4.20;;;8.10;97.30;;;;;;5010367;28;20424;-72
2022/05/06 01:13:41;;;;;;;8.40;4.50;;;8.10;97.30;;;;;;5010641;28;20230;-71
2022/05/06 01:16:07;;;;;;;6.13;4.07;;;8.10;97.30;;;;;;5011619;28;20440;-72
2022/05/06 01:18:33;;;;;;;6.93;4.20;;;8.10;97.30;;;;;;5010388;28;21035;-72
2022/05/06 01:21:00;;;;;;;5.30;3.57;;;8.10;97.30;;;;;;5010074;28;20678;-72
2022/05/06 01:23:25;;;;;;;5.50;4.00;;;8.10;97.30;;;;;;5011655;28;20466;-72
2022/05/06 01:25:51;;;;;;;8.27;4.17;;;8.10;97.30;;;;;;5009927;28;20436;-72
2022/05/06 01:28:21;;;;;;;7.57;4.67;;;8.10;97.30;;;;;;5009085;28;20177;-71
2022/05/06 01:30:48;;;;;;;11.33;4.30;;;8.10;97.30;;;;;;5011220;28;20886;-71
2022/05/06 01:33:19;;;;;;;9.10;3.70;;;8.10;97.30;;;;;;5010197;28;20420;-72
2022/05/06 01:36:00;;;;;;;7.30;3.80;;;8.00;97.30;;;;;;5009859;28;20446;-72
2022/05/06 01:38:44;;;;;;;5.50;4.00;;;8.00;97.30;;;;;;5010140;28;20463;-72
2022/05/06 01:41:18;;;;;;;6.13;4.13;;;8.00;97.30;;;;;;5011194;28;20772;-71
2022/05/06 01:43:47;;;;;;;8.77;4.30;;;8.00;97.30;;;;;;5011968;28;20991;-72
2022/05/06 01:46:16;;;;;;;11.47;3.80;;;7.90;97.30;;;;;;5009693;28;20428;-72
2022/05/06 01:48:42;;;;;;;7.27;4.20;;;7.90;97.30;;;;;;5010010;28;20426;-73
2022/05/06 01:51:10;;;;;;;5.87;3.90;;;7.90;97.30;;;;;;5009415;28;20511;-72
2022/05/06 01:53:36;;;;;;;4.67;3.40;;;7.80;97.30;;;;;;5009319;28;20500;-72
2022/05/06 01:56:03;;;;;;;7.00;4.37;;;7.80;97.30;;;;;;5010868;28;20474;-73
2022/05/06 01:58:29;;;;;;;5.87;3.93;;;7.80;97.30;;;;;;5009368;28;20634;-73
2022/05/06 02:00:55;;;;;;;8.87;4.07;;;7.70;97.30;;;;;;5009260;28;20448;-73
2022/05/06 02:06:04;;;;;;;6.40;4.00;;;7.70;97.30;;;;;;5010970;28;20464;-73
2022/05/06 02:08:30;;;;;;;8.60;4.47;;;7.60;97.30;;;;;;5010331;28;20491;-73
2022/05/06 02:10:56;;;;;;;9.70;4.73;;;7.60;97.30;;;;;;5010306;28;20626;-73
2022/05/06 02:13:21;;;;;;;8.37;4.43;;;7.60;97.30;;;;;;5009331;28;20183;-73
2022/05/06 02:15:47;;;;;;;7.00;4.30;;;7.60;97.30;;;;;;5010164;28;20550;-73
2022/05/06 02:18:13;;;;;;;6.20;4.27;;;7.60;97.30;;;;;;5010226;28;20209;-73
2022/05/06 02:20:38;;;;;;;7.60;4.23;;;7.50;97.30;;;;;;5009039;28;20181;-73
2022/05/06 02:23:04;;;;;;;11.90;4.50;;;7.50;97.30;;;;;;5010260;28;20217;-73
2022/05/06 02:25:30;;;;;;;5.90;4.17;;;7.50;97.30;;;;;;5010511;28;20600;-73
2022/05/06 02:27:55;;;;;;;8.80;4.47;;;7.50;97.30;;;;;;5010079;28;20181;-72
2022/05/06 02:33:14;;;;;;;5.90;4.50;;;7.40;97.30;;;;;;5010470;28;20192;-73
2022/05/06 02:35:41;;;;;;;5.77;4.33;;;7.30;97.30;;;;;;5009771;28;20427;-73
2022/05/06 02:38:09;;;;;;;8.60;5.10;;;7.30;97.30;;;;;;5009849;28;21149;-73
2022/05/06 02:40:36;;;;;;;8.53;4.70;;;7.30;97.30;;;;;;5009909;28;20442;-73
2022/05/06 02:43:03;;;;;;;6.13;4.87;;;7.30;97.30;;;;;;5009090;28;20416;-73
2022/05/06 02:45:28;;;;;;;6.17;4.13;;;7.30;97.30;;;;;;5010253;28;20447;-73
2022/05/06 02:47:54;;;;;;;6.97;4.40;;;7.30;97.30;;;;;;5008789;28;20420;-73
2022/05/06 02:50:20;;;;;;;7.60;4.60;;;7.20;97.30;;;;;;5008584;28;20191;-72
2022/05/06 02:52:45;;;;;;;6.50;4.33;;;7.20;97.30;;;;;;5008251;28;20275;-73
2022/05/06 02:55:11;;;;;;;7.10;4.60;;;7.20;97.30;;;;;;5008188;28;20476;-73
2022/05/06 02:57:37;;;;;;;6.37;4.27;;;7.10;97.30;;;;;;5009690;28;20260;-73
2022/05/06 03:00:04;;;;;;;5.40;3.87;;;7.10;97.30;;;;;;5008560;28;21003;-73
2022/05/06 03:02:30;;;;;;;8.67;4.60;;;7.10;97.30;;;;;;4992156;28;20185;-73
2022/05/06 03:04:56;;;;;;;9.57;5.30;;;7.10;97.30;;;;;;5008457;28;20435;-73
2022/05/06 03:07:22;;;;;;;6.00;4.30;;;7.10;97.30;;;;;;5008391;28;20235;-73
2022/05/06 03:09:48;;;;;;;6.70;4.40;;;7.00;97.30;;;;;;5008328;28;20181;-73
2022/05/06 03:12:16;;;;;;;8.60;4.90;;;7.00;97.30;;;;;;5008141;28;20424;-72
2022/05/06 03:14:42;;;;;;;7.83;4.37;;;7.00;97.30;;;;;;5008295;28;20220;-73
2022/05/06 03:17:07;;;;;;;7.47;4.50;;;7.00;97.30;;;;;;5009523;28;20539;-73
2022/05/06 03:19:33;;;;;;;8.13;4.50;;;7.00;97.30;;;;;;5008112;28;20670;-73
2022/05/06 03:21:58;;;;;;;9.10;4.50;;;7.00;97.30;;;;;;5007962;28;20673;-73
2022/05/06 03:24:24;;;;;;;7.77;4.43;;;6.90;97.30;;;;;;5009408;28;20177;-73
2022/05/06 03:26:49;;;;;;;9.73;5.17;;;6.90;97.30;;;;;;5008276;28;20634;-73
2022/05/06 03:29:15;;;;;;;11.67;5.00;;;6.90;97.30;;;;;;5008539;28;20275;-72
2022/05/06 03:31:41;;;;;;;7.97;4.37;;;6.90;97.30;;;;;;5008140;28;20209;-73
2022/05/06 03:34:06;;;;;;;8.63;4.90;;;6.80;97.30;;;;;;5008095;28;20184;-73
2022/05/06 03:36:35;;;;;;;7.93;4.70;;;6.80;97.30;;;;;;5008296;28;20650;-73
2022/05/06 03:39:03;;;;;;;7.80;5.00;;;6.80;97.30;;;;;;5009578;28;20205;-73
2022/05/06 03:41:29;;;;;;;9.47;4.50;;;6.80;97.30;;;;;;5008141;28;20504;-73
2022/05/06 03:43:55;;;;;;;13.93;5.37;;;6.70;97.30;;;;;;5008083;28;20420;-73
2022/05/06 03:46:20;;;;;;;7.23;4.53;;;6.70;97.30;;;;;;5009146;28;20485;-73
2022/05/06 03:48:46;;;;;;;6.13;5.00;;;6.70;97.30;;;;;;5007997;28;20189;-73
2022/05/06 03:51:21;;;;;;;8.70;4.90;;;6.70;97.30;;;;;;5011017;28;20184;-79
2022/05/06 03:53:51;;;;;;;10.70;4.47;;;6.70;97.30;;;;;;5013588;28;20271;-80
2022/05/06 03:56:18;;;;;;;9.63;5.00;;;6.60;97.30;;;;;;5012055;28;20542;-79
2022/05/06 03:58:44;;;;;;;9.37;5.83;;;6.60;97.30;;;;;;5011913;28;20513;-80
2022/05/06 04:01:11;;;;;;;11.23;5.87;;;6.60;97.30;;;;;;5013239;28;20420;-80
2022/05/06 04:03:37;;;;;;;11.17;6.97;;;6.60;97.30;;;;;;5011942;28;20419;-80
2022/05/06 04:06:03;;;;;;;10.83;5.70;;;6.60;97.30;;;;;;5010569;28;20431;-79
2022/05/06 04:08:28;;;;;;;8.90;5.40;;;6.60;97.30;;;;;;5011288;28;20412;-79
2022/05/06 04:10:55;;;;;;;9.13;6.37;;;6.70;97.30;;;;;;5013280;28;20465;-79
2022/05/06 04:13:20;;;;;;;12.27;6.77;;;6.70;97.30;;;;;;5011596;28;20181;-80
2022/05/06 04:15:47;;;;;;;16.73;6.87;;;6.70;97.30;;;;;;5012609;28;20447;-79
2022/05/06 04:18:13;;;;;;;12.13;7.03;;;6.70;97.30;;;;;;5011259;28;20736;-80
2022/05/06 04:23:30;;;;;;;17.77;5.23;;;6.80;97.30;;;;;;5010335;28;20402;-79
2022/05/06 04:26:01;;;;;;;7.73;5.40;;;6.90;97.30;;;;;;5011602;28;20656;-79
2022/05/06 04:28:28;;;;;;;10.83;5.83;;;6.90;97.30;;;;;;5009270;28;20412;-80
2022/05/06 04:30:54;;;;;;;8.60;5.20;;;7.00;97.30;;;;;;5011663;28;20450;-80
2022/05/06 04:33:21;;;;;;;7.77;5.70;;;7.00;97.30;;;;;;5011430;28;20491;-79
2022/05/06 04:35:48;;;;;;;10.53;6.00;;;7.10;97.30;;;;;;5012315;28;20443;-80
2022/05/06 04:38:14;;;;;;;14.53;6.03;;;7.10;97.30;;;;;;5012360;28;20547;-79
2022/05/06 04:40:40;;;;;;;16.07;5.67;;;7.20;97.30;;;;;;5012776;28;20467;-79
2022/05/06 04:43:07;;;;;;;10.30;6.70;;;7.20;97.30;;;;;;5011775;28;20425;-79
2022/05/06 04:45:40;;;;;;;9.97;6.87;;;7.30;97.30;;;;;;5011608;28;20557;-80
2022/05/06 04:48:07;;;;;;;10.13;6.20;;;7.30;97.30;;;;;;5014267;28;20420;-80
2022/05/06 04:50:34;;;;;;;16.17;7.60;;;7.40;97.30;;;;;;5013393;28;20432;-81
2022/05/06 04:53:00;;;;;;;13.00;8.10;;;7.50;97.30;;;;;;5009561;28;20470;-80
2022/05/06 04:55:26;;;;;;;13.37;7.67;;;7.60;97.30;;;;;;5009181;28;20541;-80
2022/05/06 04:57:52;;;;;;;11.73;7.40;;;7.60;97.30;;;;;;5010790;28;20899;-80
2022/05/06 05:00:18;;;;;;;11.70;6.70;;;7.70;97.30;;;;;;5009885;28;20428;-80
2022/05/06 05:02:44;;;;;;;9.37;6.40;;;7.70;97.30;;;;;;5009436;28;20781;-80
2022/05/06 05:05:09;;;;;;;16.13;6.03;;;7.80;97.30;;;;;;5010715;28;20432;-80
2022/05/06 05:07:35;;;;;;;13.60;6.97;;;7.90;97.30;;;;;;5012709;28;20635;-80
2022/05/06 05:10:01;;;;;;;10.03;6.13;;;7.90;97.30;;;;;;5012445;28;20176;-79
2022/05/06 05:12:26;;;;;;;18.97;8.50;;;8.00;97.30;;;;;;5011815;28;20177;-79
2022/05/06 05:14:52;;;;;;;14.30;7.10;;;8.00;97.30;;;;;;5011011;28;20678;-80
2022/05/06 05:17:18;;;;;;;21.13;6.80;;;8.10;97.30;;;;;;5011378;28;20177;-79
2022/05/06 05:19:43;;;;;;;14.00;6.93;;;8.20;97.30;;;;;;5011473;28;20209;-80
2022/05/06 05:22:09;;;;;;;12.90;7.27;;;8.30;97.30;;;;;;5012116;28;20631;-79
2022/05/06 05:24:35;;;;;;;10.57;6.10;;;8.40;97.30;;;;;;5011565;28;21238;-80
2022/05/06 05:27:01;;;;;;;14.47;7.37;;;8.50;97.30;;;;;;5011996;28;20178;-79
2022/05/06 05:29:27;;;;;;;15.97;7.80;;;8.60;97.30;;;;;;5012536;28;20992;-80
2022/05/06 05:31:53;;;;;;;19.03;7.80;;;8.70;97.30;;;;;;5011894;28;20193;-80
2022/05/06 05:34:18;;;;;;;13.47;7.70;;;8.80;97.30;;;;;;5012702;28;20787;-79
2022/05/06 05:36:44;;;;;;;13.10;7.20;;;8.90;97.30;;;;;;5012190;28;20666;-80
2022/05/06 05:39:11;;;;;;;13.70;7.90;;;9.00;97.30;;;;;;5011506;28;20296;-80
2022/05/06 05:41:37;;;;;;;12.40;7.10;;;9.20;97.30;;;;;;5012689;28;20447;-80
2022/05/06 05:49:33;;;;;;;16.50;7.67;;;9.50;97.30;;;;;;5012627;28;20923;-79
2022/05/06 05:51:59;;;;;;;13.60;6.90;;;9.50;97.30;;;;;;5012878;28;20832;-80
2022/05/06 05:54:24;;;;;;;14.23;7.27;;;9.60;97.30;;;;;;5012773;28;20475;-80
2022/05/06 05:56:50;;;;;;;18.80;8.50;;;9.70;97.30;;;;;;5013122;28;20212;-80
2022/05/06 05:59:15;;;;;;;17.30;7.23;;;9.90;97.30;;;;;;5009690;28;20221;-77
2022/05/06 06:01:41;;;;;;;18.87;8.77;;;10.00;97.30;;;;;;5010759;28;20206;-77
2022/05/06 06:04:08;;;;;;;15.93;7.77;;;10.10;97.30;;;;;;5009276;28;20204;-77
2022/05/06 06:06:33;;;;;;;18.43;8.97;;;10.20;97.30;;;;;;5009290;28;20312;-78
2022/05/06 06:08:59;;;;;;;24.80;10.77;;;10.30;97.30;;;;;;5010803;28;20499;-77
2022/05/06 06:11:24;;;;;;;11.57;7.10;;;10.40;97.30;;;;;;5009346;28;20304;-77
2022/05/06 06:13:50;;;;;;;13.87;8.40;;;10.50;97.30;;;;;;5010147;28;20704;-77
2022/05/06 06:16:17;;;;;;;13.80;7.30;;;10.60;97.30;;;;;;5009494;28;20685;-77
2022/05/06 06:18:42;;;;;;;12.27;7.53;;;10.70;97.30;;;;;;5008986;28;20213;-77
2022/05/06 06:21:08;;;;;;;11.60;7.60;;;10.80;97.30;;;;;;5010536;28;20458;-77
2022/05/06 06:23:34;;;;;;;14.13;7.90;;;10.90;97.30;;;;;;5010580;28;20260;-77
2022/05/06 06:26:00;;;;;;;9.97;7.57;;;11.00;97.30;;;;;;5008996;28;20280;-77
2022/05/06 06:28:25;;;;;;;19.10;9.40;;;11.00;97.30;;;;;;5010462;28;20223;-77
2022/05/06 06:30:51;;;;;;;14.93;8.40;;;11.10;97.30;;;;;;5009009;28;20416;-75
2022/05/06 06:33:16;;;;;;;10.33;7.23;;;11.20;97.30;;;;;;5008785;28;20260;-76
2022/05/06 06:35:42;;;;;;;14.30;8.00;;;11.40;97.30;;;;;;5009844;28;20193;-76
2022/05/06 06:38:08;;;;;;;12.50;7.20;;;11.50;97.30;;;;;;5008531;28;20220;-76
2022/05/06 06:40:34;;;;;;;16.43;8.67;;;11.60;97.30;;;;;;5008708;28;20177;-76
2022/05/06 06:43:04;;;;;;;18.60;8.13;;;11.70;97.30;;;;;;5008790;28;20220;-76
2022/05/06 06:45:29;;;;;;;13.80;8.13;;;11.70;97.30;;;;;;5008393;28;20930;-75
2022/05/06 06:47:57;;;;;;;16.07;8.43;;;11.80;97.30;;;;;;5009676;28;20414;-75
2022/05/06 06:50:23;;;;;;;16.47;8.80;;;11.90;97.30;;;;;;5010131;28;20220;-76
2022/05/06 06:52:50;;;;;;;17.43;8.27;;;12.00;97.30;;;;;;5009762;28;20430;-76
2022/05/06 06:55:15;;;;;;;13.10;8.50;;;12.10;97.30;;;;;;5008225;28;20463;-76
2022/05/06 06:57:41;;;;;;;20.37;8.13;;;12.20;97.30;;;;;;5009917;28;20416;-76
2022/05/06 07:00:08;;;;;;;14.50;8.50;;;12.30;97.30;;;;;;5008533;28;20217;-76
2022/05/06 07:02:35;;;;;;;18.47;9.20;;;12.40;97.30;;;;;;5010318;28;20695;-76
2022/05/06 07:05:00;;;;;;;15.77;8.23;;;12.40;97.30;;;;;;5010014;28;20940;-75
2022/05/06 07:12:54;;;;;;;12.63;8.20;;;12.70;97.30;;;;;;5010074;28;20636;-76
2022/05/06 07:15:20;;;;;;;12.40;7.30;;;12.80;97.30;;;;;;5009695;28;20861;-76
2022/05/06 07:17:45;;;;;;;14.43;7.90;;;12.90;97.30;;;;;;5008395;28;20709;-76
2022/05/06 07:20:11;;;;;;;14.87;8.17;;;13.00;97.30;;;;;;5008282;28;20208;-76
2022/05/06 07:22:37;;;;;;;19.60;9.50;;;13.20;97.30;;;;;;5008250;28;20591;-75
2022/05/06 07:25:03;;;;;;;18.70;8.33;;;13.30;97.30;;;;;;5008029;28;20291;-76
2022/05/06 07:27:29;;;;;;;14.97;8.40;;;13.40;97.30;;;;;;5012824;28;20204;-76
2022/05/06 07:29:55;;;;;;;15.53;7.50;;;13.50;97.30;;;;;;5012038;28;20420;-76
2022/05/06 07:32:21;;;;;;;10.47;6.97;;;13.70;97.30;;;;;;5012115;28;20424;-76
2022/05/06 07:34:46;;;;;;;15.20;8.30;;;13.90;97.30;;;;;;5013168;28;20200;-76
2022/05/06 07:37:12;;;;;;;13.47;7.97;;;14.00;97.30;;;;;;5013489;28;20188;-75
2022/05/06 07:39:37;;;;;;;16.60;7.20;;;14.10;97.30;;;;;;5012061;28;20208;-75
2022/05/06 07:42:03;;;;;;;13.50;6.83;;;14.30;96.80;;;;;;5013234;28;20165;-78
2022/05/06 07:44:29;;;;;;;9.80;6.50;;;14.40;96.70;;;;;;5013218;28;20543;-77
2022/05/06 07:46:55;;;;;;;10.90;5.80;;;14.50;96.30;;;;;;5011813;28;20469;-78
2022/05/06 07:49:23;;;;;;;10.43;6.90;;;14.50;94.90;;;;;;5011935;28;20320;-77
2022/05/06 07:51:48;;;;;;;9.00;5.63;;;14.60;94.90;;;;;;5011794;28;20465;-78
2022/05/06 07:54:14;;;;;;;7.03;5.00;;;14.80;94.20;;;;;;5013391;28;20549;-78
2022/05/06 07:56:40;;;;;;;8.47;5.80;;;14.90;94.10;;;;;;5012173;28;20312;-78
2022/05/06 07:59:06;;;;;;;15.30;6.10;;;15.00;94.00;;;;;;5013435;28;20258;-78
2022/05/06 08:04:34;;;;;;;8.97;6.27;;;15.20;93.20;;;;;;5014053;28;20220;-76
2022/05/06 08:07:05;;;;;;;8.37;4.83;;;15.30;92.70;;;;;;5011692;28;20416;-77
2022/05/06 08:09:31;;;;;;;9.13;5.97;;;15.40;92.60;;;;;;5011847;28;20424;-77
2022/05/06 08:11:57;;;;;;;12.83;5.60;;;15.40;92.60;;;;;;5011633;28;20454;-77
2022/05/06 08:14:23;;;;;;;8.43;5.57;;;15.50;92.30;;;;;;5011256;28;20195;-77
2022/05/06 08:16:49;;;;;;;10.40;5.93;;;15.60;93.10;;;;;;5012566;28;20968;-78
2022/05/06 08:19:16;;;;;;;7.93;5.10;;;15.70;93.00;;;;;;5012631;28;20197;-76
2022/05/06 08:21:41;;;;;;;8.00;5.17;;;15.80;92.20;;;;;;5011075;28;20427;-77
2022/05/06 08:24:08;;;;;;;10.53;4.50;;;15.90;92.40;;;;;;5011347;28;20420;-76
2022/05/06 08:26:33;;;;;;;8.83;5.60;;;16.10;91.60;;;;;;5011122;28;20189;-77
2022/05/06 08:28:59;;;;;;;12.57;5.43;;;16.20;91.20;;;;;;5011299;28;20446;-77
2022/05/06 08:31:25;;;;;;;9.63;5.90;;;16.20;91.40;;;;;;5011069;28;20185;-77
2022/05/06 08:33:50;;;;;;;9.40;5.27;;;16.30;90.80;;;;;;5011459;28;20183;-77
2022/05/06 08:36:16;;;;;;;13.30;5.93;;;16.30;90.70;;;;;;5011672;28;20193;-77
2022/05/06 08:38:44;;;;;;;9.10;5.27;;;16.40;91.30;;;;;;5010741;28;20281;-78
2022/05/06 08:41:10;;;;;;;8.80;5.80;;;16.50;91.50;;;;;;5012407;28;20170;-78
2022/05/06 08:43:37;;;;;;;8.77;5.53;;;16.60;90.10;;;;;;5012496;28;20412;-77
2022/05/06 08:51:35;;;;;;;13.13;5.50;;;16.90;89.80;;;;;;5012035;28;20455;-77
2022/05/06 08:54:01;;;;;;;17.10;5.70;;;17.00;88.70;;;;;;5010597;28;20518;-77
2022/05/06 08:56:27;;;;;;;9.70;5.43;;;17.20;89.10;;;;;;5011987;28;20482;-77
2022/05/06 08:58:54;;;;;;;9.33;5.33;;;17.30;89.20;;;;;;5010763;28;20201;-77
2022/05/06 09:01:21;;;;;;;12.67;6.57;;;17.50;88.60;;;;;;5010418;28;20518;-78
2022/05/06 09:03:48;;;;;;;10.27;5.30;;;17.60;87.70;;;;;;5011926;28;20499;-78
2022/05/06 09:06:19;;;;;;;8.33;5.00;;;17.80;88.10;;;;;;5010508;28;20786;-78
2022/05/06 09:08:46;;;;;;;18.37;7.10;;;17.90;88.70;;;;;;5010606;28;20427;-77
2022/05/06 09:11:11;;;;;;;9.07;5.60;;;18.10;88.10;;;;;;5010349;28;20428;-77
2022/05/06 09:13:55;;;;;;;9.70;4.83;;;18.20;86.60;;;;;;5011662;28;21133;-77
2022/05/06 09:16:46;;;;;;;16.70;5.33;;;18.30;86.50;;;;;;5010152;28;20288;-77
2022/05/06 09:19:21;;;;;;;8.10;5.40;;;18.40;86.50;;;;;;5011777;28;20463;-77
2022/05/06 09:22:13;;;;;;;8.13;4.37;;;18.40;85.90;;;;;;5010066;28;20473;-77
2022/05/06 09:24:40;;;;;;;6.07;4.33;;;18.40;87.30;;;;;;5011474;28;20420;-77
2022/05/06 09:27:09;;;;;;;10.50;5.60;;;18.70;86.80;;;;;;5011545;28;20902;-76
2022/05/06 09:29:47;;;;;;;8.57;4.63;;;18.80;84.90;;;;;;5011487;28;20412;-78
2022/05/06 09:32:22;;;;;;;11.77;5.37;;;18.90;85.50;;;;;;5010087;28;20424;-77
2022/05/06 09:35:12;;;;;;;8.73;4.83;;;18.80;84.70;;;;;;5010284;28;20979;-77
2022/05/06 09:37:40;;;;;;;9.57;5.80;;;18.60;85.00;;;;;;5009919;28;20460;-77
2022/05/06 09:40:10;;;;;;;12.13;6.23;;;18.40;85.00;;;;;;5011224;28;20455;-77
2022/05/06 09:42:42;;;;;;;8.13;5.30;;;18.10;85.40;;;;;;5010138;28;20420;-78
2022/05/06 09:45:09;;;;;;;6.80;5.73;;;18.00;86.00;;;;;;5009615;28;20472;-77
2022/05/06 09:47:35;;;;;;;9.30;4.77;;;17.90;86.90;;;;;;5009808;28;20769;-77
2022/05/06 09:50:06;;;;;;;7.10;4.80;;;17.80;86.30;;;;;;5008870;28;20427;-78
2022/05/06 09:52:33;;;;;;;11.50;4.70;;;17.80;86.90;;;;;;5009730;28;20188;-77
2022/05/06 09:55:00;;;;;;;11.13;5.90;;;17.90;86.80;;;;;;5010663;28;20464;-78
2022/05/06 09:57:25;;;;;;;11.40;4.27;;;17.90;86.00;;;;;;5010658;28;20964;-77
2022/05/06 09:59:51;;;;;;;6.20;3.53;;;17.80;85.40;;;;;;5009410;28;20464;-77
2022/05/06 10:02:20;;;;;;;5.23;3.20;;;17.90;85.40;;;;;;5011034;28;20352;-77
2022/05/06 10:04:49;;;;;;;4.83;2.87;;;18.00;84.30;;;;;;5009400;28;20459;-77
2022/05/06 10:07:16;;;;;;;5.90;4.13;;;18.30;84.40;;;;;;5010826;28;20828;-77
2022/05/06 10:09:58;;;;;;;6.10;4.17;;;18.50;84.30;;;;;;5010831;28;20710;-77
2022/05/06 10:12:27;;;;;;;7.10;3.90;;;18.70;83.50;;;;;;5009042;28;20743;-74
2022/05/06 10:14:54;;;;;;;5.97;4.13;;;18.90;84.50;;;;;;5010462;28;20428;-74
2022/05/06 10:17:52;;;;;;;6.30;3.90;;;19.20;83.60;;;;;;5010526;28;20419;-74
2022/05/06 10:23:06;;;;;;;5.50;3.43;;;19.50;81.90;;;;;;5010154;28;20479;-74
2022/05/06 10:25:41;;;;;;;5.40;3.67;;;19.30;81.50;;;;;;5009144;28;20514;-74
2022/05/06 10:34:09;;;;;;;5.87;2.80;;;19.30;81.70;;;;;;5010479;28;20846;-74
2022/05/06 10:36:49;;;;;;;11.30;3.80;;;19.30;82.20;;;;;;5010026;28;20923;-74
2022/05/06 10:39:17;;;;;;;5.87;3.43;;;19.40;81.40;;;;;;5010017;28;20848;-74
2022/05/06 10:42:05;;;;;;;7.73;3.10;;;19.70;81.90;;;;;;5008525;28;20466;-74
2022/05/06 10:44:49;;;;;;;5.50;2.80;;;19.90;81.70;;;;;;5009832;28;20874;-74
2022/05/06 10:47:15;;;;;;;4.40;2.70;;;20.00;81.80;;;;;;5009944;28;20478;-74
2022/05/06 10:49:42;;;;;;;6.33;3.00;;;20.10;80.60;;;;;;5008386;28;20427;-74
2022/05/06 10:52:14;;;;;;;3.80;2.67;;;20.30;79.50;;;;;;5008190;28;20192;-74
2022/05/06 10:54:40;;;;;;;5.00;2.80;;;20.40;79.30;;;;;;5008408;28;20476;-74
2022/05/06 10:57:07;;;;;;;4.73;2.70;;;20.60;79.90;;;;;;5008347;28;20431;-74
2022/05/06 10:59:55;;;;;;;5.00;2.50;;;20.70;78.90;;;;;;5009672;28;20548;-74
2022/05/06 11:02:22;;;;;;;4.10;2.40;;;20.80;79.10;;;;;;5009621;28;20416;-74
2022/05/06 11:04:51;;;;;;;5.60;2.37;;;20.90;76.60;;;;;;5008271;28;20439;-75
2022/05/06 11:07:17;;;;;;;5.30;3.10;;;21.00;77.20;;;;;;5010087;28;20430;-75
2022/05/06 11:09:44;;;;;;;6.10;3.00;;;20.90;78.10;;;;;;5009704;28;20957;-75
2022/05/06 11:12:10;;;;;;;5.90;2.80;;;20.50;78.20;;;;;;5009469;28;20408;-76
2022/05/06 11:14:36;;;;;;;8.27;2.77;;;20.50;79.40;;;;;;5007992;28;20973;-74
2022/05/06 11:17:17;;;;;;;5.13;2.50;;;20.50;79.00;;;;;;5009386;28;20503;-75
2022/05/06 11:19:43;;;;;;;3.70;2.30;;;20.70;78.00;;;;;;5009488;28;20228;-74
2022/05/06 11:22:09;;;;;;;3.07;2.50;;;20.80;76.10;;;;;;5009495;28;20412;-75
2022/05/06 11:24:35;;;;;;;7.90;2.47;;;20.70;76.30;;;;;;5009914;28;20235;-75
2022/05/06 11:27:14;;;;;;;3.90;3.03;;;20.80;77.60;;;;;;5008345;28;20423;-75
2022/05/06 11:29:57;;;;;;;3.23;2.67;;;20.70;78.20;;;;;;5009416;28;20419;-75
2022/05/06 11:32:28;;;;;;;5.40;2.63;;;20.60;77.70;;;;;;5009468;28;20487;-74
2022/05/06 11:35:15;;;;;;;3.70;2.33;;;20.70;77.80;;;;;;5007998;28;20468;-75
2022/05/06 11:37:41;;;;;;;5.83;2.70;;;20.80;78.50;;;;;;5009170;28;20464;-75
2022/05/06 11:40:32;;;;;;;3.23;2.30;;;21.00;77.70;;;;;;5009074;28;20833;-74
2022/05/06 11:43:03;;;;;;;3.73;2.67;;;21.30;77.10;;;;;;5007956;28;20415;-75
2022/05/06 11:48:16;;;;;;;3.23;2.20;;;21.10;73.90;;;;;;5009570;28;20781;-75
2022/05/06 11:50:42;;;;;;;3.17;2.23;;;20.90;76.70;;;;;;5009204;28;20412;-75
2022/05/06 11:53:09;;;;;;;2.27;2.10;;;21.10;77.10;;;;;;5007770;28;20466;-75
2022/05/06 11:55:37;;;;;;;5.00;2.47;;;21.50;77.20;;;;;;5007696;28;20472;-74
2022/05/06 11:58:05;;;;;;;3.60;2.00;;;21.70;76.60;;;;;;5008927;28;20420;-74
2022/05/06 12:00:31;;;;;;;4.57;2.13;;;21.80;74.80;;;;;;5007808;28;20518;-74
2022/05/06 12:03:02;;;;;;;3.00;1.97;;;22.00;74.00;;;;;;5009069;28;20588;-74
2022/05/06 12:05:28;;;;;;;2.73;1.90;;;22.10;73.10;;;;;;5009146;28;20523;-74
2022/05/06 12:07:54;;;;;;;3.97;2.30;;;22.40;74.70;;;;;;5007825;28;20551;-74
2022/05/06 12:10:38;;;;;;;10.50;2.20;;;22.60;75.40;;;;;;5007894;28;20607;-75
2022/05/06 12:13:10;;;;;;;3.87;2.40;;;22.90;74.30;;;;;;5011663;28;20172;-75
2022/05/06 12:15:39;;;;;;;3.67;3.20;;;23.10;73.70;;;;;;5013025;28;20901;-75
2022/05/06 12:18:09;;;;;;;9.20;6.97;;;22.90;72.40;;;;;;5013190;28;20412;-76
2022/05/06 12:20:36;;;;;;;4.80;2.80;;;22.40;71.70;;;;;;5011691;28;20514;-76
2022/05/06 12:23:04;;;;;;;3.17;2.20;;;22.00;72.90;;;;;;5012781;28;20411;-76
2022/05/06 12:25:29;;;;;;;4.03;2.00;;;21.60;74.40;;;;;;5011814;28;20424;-76
2022/05/06 12:28:06;;;;;;;3.70;2.03;;;21.30;74.40;;;;;;5011555;28;20906;-76
2022/05/06 12:30:32;;;;;;;2.30;2.07;;;21.20;75.10;;;;;;5012949;28;20180;-76
2022/05/06 12:33:04;;;;;;;7.63;2.83;;;21.30;76.60;;;;;;5013001;28;20400;-76
2022/05/06 12:35:30;;;;;;;2.37;2.10;;;21.80;75.10;;;;;;5013068;28;20462;-76
2022/05/06 12:37:57;;;;;;;3.17;2.10;;;22.10;73.60;;;;;;5012782;28;20509;-75
2022/05/06 12:40:34;;;;;;;3.37;1.93;;;22.50;74.40;;;;;;5012875;28;20197;-75
2022/05/06 12:43:10;;;;;;;5.60;2.77;;;22.70;71.70;;;;;;5012577;28;20499;-76
2022/05/06 12:45:37;;;;;;;3.43;1.90;;;23.10;71.80;;;;;;5013192;28;20501;-76
2022/05/06 12:50:47;;;;;;;2.47;2.00;;;23.60;73.10;;;;;;5011560;28;20752;-77
2022/05/06 12:53:13;;;;;;;2.70;1.73;;;23.50;70.90;;;;;;5010103;28;20416;-77
2022/05/06 12:55:40;;;;;;;2.40;1.97;;;23.20;71.20;;;;;;5012538;28;20278;-77
2022/05/06 12:58:06;;;;;;;4.60;2.13;;;22.70;71.40;;;;;;5011522;28;20638;-76
2022/05/06 13:00:32;;;;;;;4.53;2.73;;;22.30;71.40;;;;;;5011003;28;20470;-76
2022/05/06 13:02:58;;;;;;;4.60;2.10;;;21.90;72.00;;;;;;5010112;28;20300;-77
2022/05/06 13:05:24;;;;;;;6.47;2.80;;;21.70;73.50;;;;;;5009190;28;20193;-77
2022/05/06 13:07:50;;;;;;;3.43;2.40;;;21.50;74.50;;;;;;5009566;28;20428;-77
2022/05/06 13:10:15;;;;;;;3.47;2.40;;;21.50;74.20;;;;;;5010854;28;20423;-78
2022/05/06 13:12:41;;;;;;;10.97;2.20;;;21.40;74.70;;;;;;5009330;28;20420;-76
2022/05/06 13:15:07;;;;;;;2.90;2.10;;;21.50;74.90;;;;;;5010234;28;20193;-76
2022/05/06 13:17:33;;;;;;;4.87;2.50;;;21.70;74.90;;;;;;5011047;28;20208;-76
2022/05/06 13:19:58;;;;;;;3.70;2.53;;;22.10;73.90;;;;;;5010493;28;20201;-76
2022/05/06 13:22:25;;;;;;;5.77;2.70;;;22.50;73.30;;;;;;5011840;28;20177;-76
2022/05/06 13:24:51;;;;;;;9.47;2.97;;;22.90;72.20;;;;;;5011587;28;20193;-76
2022/05/06 13:27:17;;;;;;;4.70;2.27;;;23.00;70.60;;;;;;5011827;28;20889;-76
2022/05/06 13:29:42;;;;;;;5.23;2.70;;;23.00;70.50;;;;;;5010276;28;20216;-76
2022/05/06 13:32:08;;;;;;;4.97;2.37;;;23.20;72.00;;;;;;5011596;28;20215;-76